To NAV CANADA Home Page Login to a new session Search on AWWS site Feedback and Comments Disclaimer Vers la page française équivalente Tips FAQ What's new on the site To the Forecasts and Observations / NOTAM section To "File a Flight Plan" website Publications and other links Update of the User's profile FIC Telephone Numbers My Weather Data Folder Route Weather Data Regional Weather Data Local Weather Data To the Forecasts and Observations / NOTAM section
Request Generated 10/18/2017 at 03:54:41 UTC . Weather information available at that time is displayed.

METAR/TAF

TALOYOAK/NU    

LWIS CYYH 180300Z AUTO 16006KT M10/M12 A2982=
METAR CYYH 180200Z 15005KT 15SM -SN FEW012 BKN038 BKN044 M10/M12
A2983 RMK SC2SC3SC2 LAST OBS NXT 181500Z. SLP106=
METAR CYYH 180100Z 14004KT 15SM -SN FEW012 SCT043 BKN048 M11/M13
A2983 RMK SC1SC3SC3 SLP105=

TAF CYYH 172338Z 1800/1812 VRB03KT P6SM FEW012 BKN040 TEMPO 1800/1812
P6SM -SN FEW007 BKN012
RMK NXT FCST BY 180600Z=
Your time UTC time
Weather data provided by Environment Canada and NAV CANADA